sensor_id;sensor_type;location;lat;lon;timestamp;P1;durP1;ratioP1;P2;durP2;ratioP2
13374;SDS011;6756;51.354;15.754;2023-04-03T00:08:25;6.30;;;2.83;;
13374;SDS011;6756;51.354;15.754;2023-04-03T00:13:02;7.47;;;2.77;;
13374;SDS011;6756;51.354;15.754;2023-04-03T00:17:18;4.17;;;2.00;;
13374;SDS011;6756;51.354;15.754;2023-04-03T00:21:22;4.73;;;1.77;;
13374;SDS011;6756;51.354;15.754;2023-04-03T00:25:26;5.53;;;2.10;;
13374;SDS011;6756;51.354;15.754;2023-04-03T00:29:27;5.50;;;2.03;;
13374;SDS011;6756;51.354;15.754;2023-04-03T00:33:37;7.43;;;1.87;;
13374;SDS011;6756;51.354;15.754;2023-04-03T00:37:59;4.90;;;2.03;;
13374;SDS011;6756;51.354;15.754;2023-04-03T00:42:08;6.00;;;2.17;;
13374;SDS011;6756;51.354;15.754;2023-04-03T00:46:30;2.63;;;1.70;;
13374;SDS011;6756;51.354;15.754;2023-04-03T00:51:22;4.10;;;1.27;;
13374;SDS011;6756;51.354;15.754;2023-04-03T00:55:28;3.83;;;1.53;;
13374;SDS011;6756;51.354;15.754;2023-04-03T00:59:39;3.07;;;1.73;;
13374;SDS011;6756;51.354;15.754;2023-04-03T01:04:43;3.30;;;1.30;;
13374;SDS011;6756;51.354;15.754;2023-04-03T01:18:20;3.20;;;1.60;;
13374;SDS011;6756;51.354;15.754;2023-04-03T01:22:49;3.20;;;1.50;;
13374;SDS011;6756;51.354;15.754;2023-04-03T01:37:02;3.30;;;1.90;;
13374;SDS011;6756;51.354;15.754;2023-04-03T01:41:25;5.30;;;1.50;;
13374;SDS011;6756;51.354;15.754;2023-04-03T01:45:41;4.20;;;2.03;;
13374;SDS011;6756;51.354;15.754;2023-04-03T01:49:54;3.03;;;1.83;;
13374;SDS011;6756;51.354;15.754;2023-04-03T01:58:57;3.63;;;1.20;;
13374;SDS011;6756;51.354;15.754;2023-04-03T02:12:34;5.33;;;1.57;;
13374;SDS011;6756;51.354;15.754;2023-04-03T02:21:05;3.93;;;1.77;;
13374;SDS011;6756;51.354;15.754;2023-04-03T02:25:34;7.07;;;1.60;;
13374;SDS011;6756;51.354;15.754;2023-04-03T02:30:28;3.50;;;1.23;;
13374;SDS011;6756;51.354;15.754;2023-04-03T02:34:36;5.60;;;1.80;;
13374;SDS011;6756;51.354;15.754;2023-04-03T02:38:44;5.00;;;1.87;;
13374;SDS011;6756;51.354;15.754;2023-04-03T02:42:54;4.60;;;1.93;;
13374;SDS011;6756;51.354;15.754;2023-04-03T02:51:43;4.57;;;1.80;;
13374;SDS011;6756;51.354;15.754;2023-04-03T02:55:56;4.70;;;1.80;;
13374;SDS011;6756;51.354;15.754;2023-04-03T03:00:03;4.07;;;1.33;;
13374;SDS011;6756;51.354;15.754;2023-04-03T03:09:10;8.70;;;1.87;;
13374;SDS011;6756;51.354;15.754;2023-04-03T03:13:12;4.90;;;1.60;;
13374;SDS011;6756;51.354;15.754;2023-04-03T03:17:22;6.37;;;1.57;;
13374;SDS011;6756;51.354;15.754;2023-04-03T03:21:27;4.33;;;2.00;;
13374;SDS011;6756;51.354;15.754;2023-04-03T03:25:38;4.50;;;1.70;;
13374;SDS011;6756;51.354;15.754;2023-04-03T03:34:08;1.37;;;1.13;;
13374;SDS011;6756;51.354;15.754;2023-04-03T03:38:10;3.30;;;1.87;;
13374;SDS011;6756;51.354;15.754;2023-04-03T03:42:14;4.37;;;1.73;;
13374;SDS011;6756;51.354;15.754;2023-04-03T03:55:41;5.67;;;1.90;;
13374;SDS011;6756;51.354;15.754;2023-04-03T03:59:51;5.57;;;1.93;;
13374;SDS011;6756;51.354;15.754;2023-04-03T04:04:05;5.00;;;1.57;;
13374;SDS011;6756;51.354;15.754;2023-04-03T04:08:19;4.33;;;1.63;;
13374;SDS011;6756;51.354;15.754;2023-04-03T04:12:54;3.60;;;1.43;;
13374;SDS011;6756;51.354;15.754;2023-04-03T04:17:05;5.03;;;1.97;;
13374;SDS011;6756;51.354;15.754;2023-04-03T04:21:08;5.43;;;1.77;;
13374;SDS011;6756;51.354;15.754;2023-04-03T04:26:01;3.53;;;1.63;;
13374;SDS011;6756;51.354;15.754;2023-04-03T04:30:34;8.20;;;2.20;;
13374;SDS011;6756;51.354;15.754;2023-04-03T04:34:36;3.70;;;1.57;;
13374;SDS011;6756;51.354;15.754;2023-04-03T04:38:42;5.00;;;1.67;;
13374;SDS011;6756;51.354;15.754;2023-04-03T04:42:49;4.40;;;1.90;;
13374;SDS011;6756;51.354;15.754;2023-04-03T04:47:16;4.40;;;1.67;;
13374;SDS011;6756;51.354;15.754;2023-04-03T04:51:26;5.40;;;1.90;;
13374;SDS011;6756;51.354;15.754;2023-04-03T04:55:43;4.87;;;1.27;;
13374;SDS011;6756;51.354;15.754;2023-04-03T05:00:11;4.63;;;2.00;;
13374;SDS011;6756;51.354;15.754;2023-04-03T05:18:51;2.90;;;1.63;;
13374;SDS011;6756;51.354;15.754;2023-04-03T05:22:56;2.73;;;1.73;;
13374;SDS011;6756;51.354;15.754;2023-04-03T05:27:01;4.37;;;1.80;;
13374;SDS011;6756;51.354;15.754;2023-04-03T05:31:05;4.63;;;1.47;;
13374;SDS011;6756;51.354;15.754;2023-04-03T05:36:11;2.23;;;1.83;;
13374;SDS011;6756;51.354;15.754;2023-04-03T05:41:08;5.43;;;2.20;;
13374;SDS011;6756;51.354;15.754;2023-04-03T05:45:21;6.33;;;2.40;;
13374;SDS011;6756;51.354;15.754;2023-04-03T05:54:17;11.40;;;3.57;;
13374;SDS011;6756;51.354;15.754;2023-04-03T05:58:38;22.50;;;10.33;;
13374;SDS011;6756;51.354;15.754;2023-04-03T06:03:19;17.10;;;7.30;;
13374;SDS011;6756;51.354;15.754;2023-04-03T06:11:59;8.93;;;3.63;;
13374;SDS011;6756;51.354;15.754;2023-04-03T06:20:36;12.63;;;2.00;;
13374;SDS011;6756;51.354;15.754;2023-04-03T06:24:40;13.93;;;5.17;;
13374;SDS011;6756;51.354;15.754;2023-04-03T06:28:41;13.47;;;5.60;;
13374;SDS011;6756;51.354;15.754;2023-04-03T06:32:42;12.27;;;5.33;;
13374;SDS011;6756;51.354;15.754;2023-04-03T06:36:49;3.87;;;2.83;;
13374;SDS011;6756;51.354;15.754;2023-04-03T06:40:54;13.47;;;5.17;;
13374;SDS011;6756;51.354;15.754;2023-04-03T06:44:58;21.37;;;9.60;;
13374;SDS011;6756;51.354;15.754;2023-04-03T06:49:02;23.93;;;11.80;;
13374;SDS011;6756;51.354;15.754;2023-04-03T06:53:03;32.97;;;16.40;;
13374;SDS011;6756;51.354;15.754;2023-04-03T06:57:14;15.67;;;7.47;;
13374;SDS011;6756;51.354;15.754;2023-04-03T07:01:15;18.17;;;8.00;;
13374;SDS011;6756;51.354;15.754;2023-04-03T07:05:19;8.53;;;3.60;;
13374;SDS011;6756;51.354;15.754;2023-04-03T07:09:23;16.77;;;8.07;;
13374;SDS011;6756;51.354;15.754;2023-04-03T07:13:24;7.83;;;3.67;;
13374;SDS011;6756;51.354;15.754;2023-04-03T07:17:26;6.90;;;2.17;;
13374;SDS011;6756;51.354;15.754;2023-04-03T07:21:28;11.20;;;3.57;;
13374;SDS011;6756;51.354;15.754;2023-04-03T07:25:29;11.13;;;4.43;;
13374;SDS011;6756;51.354;15.754;2023-04-03T07:29:30;8.03;;;5.23;;
13374;SDS011;6756;51.354;15.754;2023-04-03T07:33:31;6.77;;;3.30;;
13374;SDS011;6756;51.354;15.754;2023-04-03T07:37:33;9.23;;;4.03;;
13374;SDS011;6756;51.354;15.754;2023-04-03T07:41:34;5.87;;;2.70;;
13374;SDS011;6756;51.354;15.754;2023-04-03T07:45:38;3.70;;;2.27;;
13374;SDS011;6756;51.354;15.754;2023-04-03T07:49:44;5.87;;;3.53;;
13374;SDS011;6756;51.354;15.754;2023-04-03T07:53:45;6.03;;;2.17;;
13374;SDS011;6756;51.354;15.754;2023-04-03T07:57:46;3.07;;;1.67;;
13374;SDS011;6756;51.354;15.754;2023-04-03T08:01:47;7.77;;;4.10;;
13374;SDS011;6756;51.354;15.754;2023-04-03T08:10:51;5.17;;;2.73;;
13374;SDS011;6756;51.354;15.754;2023-04-03T08:14:54;6.23;;;2.90;;
13374;SDS011;6756;51.354;15.754;2023-04-03T08:18:55;5.27;;;2.73;;
13374;SDS011;6756;51.354;15.754;2023-04-03T08:23:16;6.87;;;2.90;;
13374;SDS011;6756;51.354;15.754;2023-04-03T08:27:17;5.67;;;3.03;;
13374;SDS011;6756;51.354;15.754;2023-04-03T08:31:18;15.93;;;6.50;;
13374;SDS011;6756;51.354;15.754;2023-04-03T08:35:20;28.60;;;8.87;;
13374;SDS011;6756;51.354;15.754;2023-04-03T08:48:05;13.97;;;5.40;;
13374;SDS011;6756;51.354;15.754;2023-04-03T08:52:44;61.23;;;15.83;;
13374;SDS011;6756;51.354;15.754;2023-04-03T08:56:54;9.53;;;5.53;;
13374;SDS011;6756;51.354;15.754;2023-04-03T09:01:00;11.70;;;6.03;;
13374;SDS011;6756;51.354;15.754;2023-04-03T09:05:14;15.27;;;7.97;;
13374;SDS011;6756;51.354;15.754;2023-04-03T09:09:30;5.17;;;2.20;;
13374;SDS011;6756;51.354;15.754;2023-04-03T09:13:54;10.97;;;4.93;;
13374;SDS011;6756;51.354;15.754;2023-04-03T09:18:25;8.60;;;4.23;;
13374;SDS011;6756;51.354;15.754;2023-04-03T09:22:41;5.77;;;2.30;;
13374;SDS011;6756;51.354;15.754;2023-04-03T09:26:51;10.70;;;5.83;;
13374;SDS011;6756;51.354;15.754;2023-04-03T09:30:54;7.57;;;3.57;;
13374;SDS011;6756;51.354;15.754;2023-04-03T09:34:56;12.73;;;7.10;;
13374;SDS011;6756;51.354;15.754;2023-04-03T09:39:26;8.63;;;4.30;;
13374;SDS011;6756;51.354;15.754;2023-04-03T09:43:30;9.73;;;5.27;;
13374;SDS011;6756;51.354;15.754;2023-04-03T09:47:33;3.83;;;1.87;;
13374;SDS011;6756;51.354;15.754;2023-04-03T09:51:40;5.50;;;2.50;;
13374;SDS011;6756;51.354;15.754;2023-04-03T09:55:42;10.03;;;3.67;;
13374;SDS011;6756;51.354;15.754;2023-04-03T09:59:46;5.30;;;2.93;;
13374;SDS011;6756;51.354;15.754;2023-04-03T10:04:18;7.67;;;2.80;;
13374;SDS011;6756;51.354;15.754;2023-04-03T10:08:21;3.70;;;1.60;;
13374;SDS011;6756;51.354;15.754;2023-04-03T10:12:24;3.23;;;1.80;;
13374;SDS011;6756;51.354;15.754;2023-04-03T10:16:27;3.20;;;1.40;;
13374;SDS011;6756;51.354;15.754;2023-04-03T10:20:40;3.90;;;1.70;;
13374;SDS011;6756;51.354;15.754;2023-04-03T10:24:51;3.13;;;1.40;;
13374;SDS011;6756;51.354;15.754;2023-04-03T10:29:28;4.57;;;2.90;;
13374;SDS011;6756;51.354;15.754;2023-04-03T10:34:04;7.00;;;3.13;;
13374;SDS011;6756;51.354;15.754;2023-04-03T10:47:56;11.73;;;5.30;;
13374;SDS011;6756;51.354;15.754;2023-04-03T10:52:24;6.70;;;4.47;;
13374;SDS011;6756;51.354;15.754;2023-04-03T10:56:56;4.50;;;2.43;;
13374;SDS011;6756;51.354;15.754;2023-04-03T11:01:35;9.80;;;5.00;;
13374;SDS011;6756;51.354;15.754;2023-04-03T11:05:47;3.73;;;1.70;;
13374;SDS011;6756;51.354;15.754;2023-04-03T11:09:55;4.17;;;2.30;;
13374;SDS011;6756;51.354;15.754;2023-04-03T11:14:46;6.37;;;3.57;;
13374;SDS011;6756;51.354;15.754;2023-04-03T11:18:42;2.50;;;1.60;;
13374;SDS011;6756;51.354;15.754;2023-04-03T11:27:27;2.37;;;1.40;;
13374;SDS011;6756;51.354;15.754;2023-04-03T11:35:43;3.17;;;1.40;;
13374;SDS011;6756;51.354;15.754;2023-04-03T11:39:57;4.17;;;2.20;;
13374;SDS011;6756;51.354;15.754;2023-04-03T11:44:27;2.17;;;1.43;;
13374;SDS011;6756;51.354;15.754;2023-04-03T11:48:42;3.50;;;2.23;;
13374;SDS011;6756;51.354;15.754;2023-04-03T11:56:50;2.40;;;1.20;;
13374;SDS011;6756;51.354;15.754;2023-04-03T12:00:55;5.33;;;1.43;;
13374;SDS011;6756;51.354;15.754;2023-04-03T12:05:25;2.40;;;1.30;;
13374;SDS011;6756;51.354;15.754;2023-04-03T12:13:38;5.87;;;1.80;;
13374;SDS011;6756;51.354;15.754;2023-04-03T12:17:46;7.37;;;3.47;;
13374;SDS011;6756;51.354;15.754;2023-04-03T12:26:05;10.90;;;5.30;;
13374;SDS011;6756;51.354;15.754;2023-04-03T12:30:27;2.53;;;1.50;;
13374;SDS011;6756;51.354;15.754;2023-04-03T12:47:45;12.37;;;5.00;;
13374;SDS011;6756;51.354;15.754;2023-04-03T12:51:57;6.67;;;2.63;;
13374;SDS011;6756;51.354;15.754;2023-04-03T13:00:41;2.90;;;1.93;;
13374;SDS011;6756;51.354;15.754;2023-04-03T13:04:42;4.63;;;2.27;;
13374;SDS011;6756;51.354;15.754;2023-04-03T13:08:54;11.07;;;5.43;;
13374;SDS011;6756;51.354;15.754;2023-04-03T13:13:06;3.17;;;2.43;;
13374;SDS011;6756;51.354;15.754;2023-04-03T13:17:14;4.27;;;2.90;;
13374;SDS011;6756;51.354;15.754;2023-04-03T13:21:20;7.10;;;2.90;;
13374;SDS011;6756;51.354;15.754;2023-04-03T13:25:53;2.27;;;1.67;;
13374;SDS011;6756;51.354;15.754;2023-04-03T13:29:56;5.40;;;1.80;;
13374;SDS011;6756;51.354;15.754;2023-04-03T13:34:07;9.87;;;4.13;;
13374;SDS011;6756;51.354;15.754;2023-04-03T13:42:30;4.53;;;2.50;;
13374;SDS011;6756;51.354;15.754;2023-04-03T13:46:35;4.57;;;1.60;;
13374;SDS011;6756;51.354;15.754;2023-04-03T13:54:58;3.07;;;2.13;;
13374;SDS011;6756;51.354;15.754;2023-04-03T14:07:40;10.23;;;4.63;;
13374;SDS011;6756;51.354;15.754;2023-04-03T14:11:41;6.37;;;3.90;;
13374;SDS011;6756;51.354;15.754;2023-04-03T14:15:49;12.70;;;6.57;;
13374;SDS011;6756;51.354;15.754;2023-04-03T14:19:55;13.13;;;7.20;;
13374;SDS011;6756;51.354;15.754;2023-04-03T14:24:01;7.80;;;4.03;;
13374;SDS011;6756;51.354;15.754;2023-04-03T14:32:40;7.33;;;3.43;;
13374;SDS011;6756;51.354;15.754;2023-04-03T14:36:52;78.33;;;46.43;;
13374;SDS011;6756;51.354;15.754;2023-04-03T14:40:57;15.80;;;10.03;;
13374;SDS011;6756;51.354;15.754;2023-04-03T14:44:59;31.70;;;18.67;;
13374;SDS011;6756;51.354;15.754;2023-04-03T14:49:01;7.53;;;3.63;;
13374;SDS011;6756;51.354;15.754;2023-04-03T14:53:07;4.47;;;2.40;;
13374;SDS011;6756;51.354;15.754;2023-04-03T14:57:12;35.23;;;20.23;;
13374;SDS011;6756;51.354;15.754;2023-04-03T15:01:14;21.63;;;13.90;;
13374;SDS011;6756;51.354;15.754;2023-04-03T15:05:16;3.43;;;1.90;;
13374;SDS011;6756;51.354;15.754;2023-04-03T15:09:24;30.50;;;20.23;;
13374;SDS011;6756;51.354;15.754;2023-04-03T15:13:30;5.93;;;3.73;;
13374;SDS011;6756;51.354;15.754;2023-04-03T15:17:31;10.60;;;5.63;;
13374;SDS011;6756;51.354;15.754;2023-04-03T15:21:32;13.87;;;7.90;;
13374;SDS011;6756;51.354;15.754;2023-04-03T15:25:33;25.77;;;10.97;;
13374;SDS011;6756;51.354;15.754;2023-04-03T15:29:39;42.23;;;20.17;;
13374;SDS011;6756;51.354;15.754;2023-04-03T15:33:42;39.63;;;19.93;;
13374;SDS011;6756;51.354;15.754;2023-04-03T15:42:04;25.17;;;10.80;;
13374;SDS011;6756;51.354;15.754;2023-04-03T15:46:06;22.83;;;9.60;;
13374;SDS011;6756;51.354;15.754;2023-04-03T15:50:07;41.87;;;21.33;;
13374;SDS011;6756;51.354;15.754;2023-04-03T15:54:12;50.43;;;27.00;;
13374;SDS011;6756;51.354;15.754;2023-04-03T15:58:13;122.43;;;55.67;;
13374;SDS011;6756;51.354;15.754;2023-04-03T16:02:18;42.10;;;20.60;;
13374;SDS011;6756;51.354;15.754;2023-04-03T16:06:22;96.07;;;44.77;;
13374;SDS011;6756;51.354;15.754;2023-04-03T16:10:25;89.23;;;38.00;;
13374;SDS011;6756;51.354;15.754;2023-04-03T16:14:32;107.37;;;46.60;;
13374;SDS011;6756;51.354;15.754;2023-04-03T16:18:37;18.93;;;8.90;;
13374;SDS011;6756;51.354;15.754;2023-04-03T16:22:48;63.17;;;26.83;;
13374;SDS011;6756;51.354;15.754;2023-04-03T16:26:49;137.40;;;53.97;;
13374;SDS011;6756;51.354;15.754;2023-04-03T16:30:51;66.93;;;27.50;;
13374;SDS011;6756;51.354;15.754;2023-04-03T16:34:54;14.03;;;6.93;;
13374;SDS011;6756;51.354;15.754;2023-04-03T16:38:56;25.07;;;11.37;;
13374;SDS011;6756;51.354;15.754;2023-04-03T16:42:57;66.87;;;27.60;;
13374;SDS011;6756;51.354;15.754;2023-04-03T16:46:58;63.90;;;27.13;;
13374;SDS011;6756;51.354;15.754;2023-04-03T16:51:02;103.77;;;40.57;;
13374;SDS011;6756;51.354;15.754;2023-04-03T16:55:04;84.37;;;37.80;;
13374;SDS011;6756;51.354;15.754;2023-04-03T16:59:05;64.47;;;31.37;;
13374;SDS011;6756;51.354;15.754;2023-04-03T17:03:07;22.53;;;9.90;;
13374;SDS011;6756;51.354;15.754;2023-04-03T17:07:08;9.80;;;4.70;;
13374;SDS011;6756;51.354;15.754;2023-04-03T17:11:09;8.87;;;4.70;;
13374;SDS011;6756;51.354;15.754;2023-04-03T17:15:10;5.03;;;3.07;;
13374;SDS011;6756;51.354;15.754;2023-04-03T17:19:12;9.40;;;4.17;;
13374;SDS011;6756;51.354;15.754;2023-04-03T17:23:13;6.27;;;3.23;;
13374;SDS011;6756;51.354;15.754;2023-04-03T17:27:14;7.77;;;4.20;;
13374;SDS011;6756;51.354;15.754;2023-04-03T17:31:21;8.27;;;4.70;;
13374;SDS011;6756;51.354;15.754;2023-04-03T17:35:25;8.63;;;4.03;;
13374;SDS011;6756;51.354;15.754;2023-04-03T17:39:26;12.90;;;5.20;;
13374;SDS011;6756;51.354;15.754;2023-04-03T17:43:27;8.43;;;5.00;;
13374;SDS011;6756;51.354;15.754;2023-04-03T17:47:28;11.90;;;5.67;;
13374;SDS011;6756;51.354;15.754;2023-04-03T17:51:29;21.13;;;9.80;;
13374;SDS011;6756;51.354;15.754;2023-04-03T17:55:36;8.70;;;4.90;;
13374;SDS011;6756;51.354;15.754;2023-04-03T17:59:40;15.73;;;6.53;;
13374;SDS011;6756;51.354;15.754;2023-04-03T18:03:41;13.00;;;6.50;;
13374;SDS011;6756;51.354;15.754;2023-04-03T18:07:43;11.55;;;6.72;;
13374;SDS011;6756;51.354;15.754;2023-04-03T18:11:45;18.00;;;8.20;;
13374;SDS011;6756;51.354;15.754;2023-04-03T18:16:07;48.27;;;20.90;;
13374;SDS011;6756;51.354;15.754;2023-04-03T18:20:10;41.43;;;19.17;;
13374;SDS011;6756;51.354;15.754;2023-04-03T18:24:17;27.03;;;13.27;;
13374;SDS011;6756;51.354;15.754;2023-04-03T18:28:19;31.87;;;15.37;;
13374;SDS011;6756;51.354;15.754;2023-04-03T18:32:20;39.17;;;17.30;;
13374;SDS011;6756;51.354;15.754;2023-04-03T18:36:22;76.80;;;31.73;;
13374;SDS011;6756;51.354;15.754;2023-04-03T18:40:23;62.93;;;26.60;;
13374;SDS011;6756;51.354;15.754;2023-04-03T18:44:24;17.83;;;9.70;;
13374;SDS011;6756;51.354;15.754;2023-04-03T18:48:27;49.63;;;25.20;;
13374;SDS011;6756;51.354;15.754;2023-04-03T18:52:28;40.43;;;20.10;;
13374;SDS011;6756;51.354;15.754;2023-04-03T18:56:31;37.13;;;19.90;;
13374;SDS011;6756;51.354;15.754;2023-04-03T19:00:32;40.53;;;20.33;;
13374;SDS011;6756;51.354;15.754;2023-04-03T19:04:33;19.33;;;10.50;;
13374;SDS011;6756;51.354;15.754;2023-04-03T19:08:35;44.07;;;22.63;;
13374;SDS011;6756;51.354;15.754;2023-04-03T19:12:36;35.63;;;16.73;;
13374;SDS011;6756;51.354;15.754;2023-04-03T19:16:37;31.47;;;16.13;;
13374;SDS011;6756;51.354;15.754;2023-04-03T19:20:38;20.60;;;12.00;;
13374;SDS011;6756;51.354;15.754;2023-04-03T19:24:49;19.17;;;9.90;;
13374;SDS011;6756;51.354;15.754;2023-04-03T19:28:58;35.57;;;18.27;;
13374;SDS011;6756;51.354;15.754;2023-04-03T19:32:59;76.57;;;33.13;;
13374;SDS011;6756;51.354;15.754;2023-04-03T19:37:01;55.53;;;25.33;;
13374;SDS011;6756;51.354;15.754;2023-04-03T19:41:05;31.50;;;12.97;;
13374;SDS011;6756;51.354;15.754;2023-04-03T19:45:08;30.93;;;14.40;;
13374;SDS011;6756;51.354;15.754;2023-04-03T19:49:11;16.47;;;8.40;;
13374;SDS011;6756;51.354;15.754;2023-04-03T19:53:12;14.13;;;7.03;;
13374;SDS011;6756;51.354;15.754;2023-04-03T19:57:18;18.47;;;7.70;;
13374;SDS011;6756;51.354;15.754;2023-04-03T20:01:20;27.77;;;12.87;;
13374;SDS011;6756;51.354;15.754;2023-04-03T20:05:26;35.67;;;19.10;;
13374;SDS011;6756;51.354;15.754;2023-04-03T20:09:28;35.83;;;19.70;;
13374;SDS011;6756;51.354;15.754;2023-04-03T20:13:29;27.50;;;13.37;;
13374;SDS011;6756;51.354;15.754;2023-04-03T20:17:33;24.60;;;12.10;;
13374;SDS011;6756;51.354;15.754;2023-04-03T20:21:37;15.37;;;8.20;;
13374;SDS011;6756;51.354;15.754;2023-04-03T20:25:42;15.80;;;8.10;;
13374;SDS011;6756;51.354;15.754;2023-04-03T20:29:45;16.43;;;8.70;;
13374;SDS011;6756;51.354;15.754;2023-04-03T20:33:46;18.20;;;8.93;;
13374;SDS011;6756;51.354;15.754;2023-04-03T20:37:47;26.57;;;12.03;;
13374;SDS011;6756;51.354;15.754;2023-04-03T20:41:52;23.20;;;13.17;;
13374;SDS011;6756;51.354;15.754;2023-04-03T20:45:53;12.30;;;7.20;;
13374;SDS011;6756;51.354;15.754;2023-04-03T20:50:08;16.47;;;8.90;;
13374;SDS011;6756;51.354;15.754;2023-04-03T20:54:10;17.53;;;9.27;;
13374;SDS011;6756;51.354;15.754;2023-04-03T20:58:12;11.10;;;6.20;;
13374;SDS011;6756;51.354;15.754;2023-04-03T21:02:13;8.97;;;5.50;;
13374;SDS011;6756;51.354;15.754;2023-04-03T21:19:54;25.73;;;15.33;;
13374;SDS011;6756;51.354;15.754;2023-04-03T21:23:55;21.47;;;11.10;;
13374;SDS011;6756;51.354;15.754;2023-04-03T21:28:06;18.63;;;9.77;;
13374;SDS011;6756;51.354;15.754;2023-04-03T21:32:07;11.83;;;6.57;;
13374;SDS011;6756;51.354;15.754;2023-04-03T21:36:09;26.63;;;16.50;;
13374;SDS011;6756;51.354;15.754;2023-04-03T21:40:10;29.63;;;11.67;;
13374;SDS011;6756;51.354;15.754;2023-04-03T21:44:11;10.93;;;5.40;;
13374;SDS011;6756;51.354;15.754;2023-04-03T21:48:12;9.90;;;4.50;;
13374;SDS011;6756;51.354;15.754;2023-04-03T21:52:16;9.43;;;5.43;;
13374;SDS011;6756;51.354;15.754;2023-04-03T21:56:17;9.03;;;4.60;;
13374;SDS011;6756;51.354;15.754;2023-04-03T22:00:21;12.63;;;5.37;;
13374;SDS011;6756;51.354;15.754;2023-04-03T22:04:22;11.77;;;7.10;;
13374;SDS011;6756;51.354;15.754;2023-04-03T22:08:28;12.77;;;6.60;;
13374;SDS011;6756;51.354;15.754;2023-04-03T22:12:30;24.20;;;12.40;;
13374;SDS011;6756;51.354;15.754;2023-04-03T22:16:34;17.03;;;8.27;;
13374;SDS011;6756;51.354;15.754;2023-04-03T22:20:35;21.57;;;10.83;;
13374;SDS011;6756;51.354;15.754;2023-04-03T22:24:36;22.03;;;10.80;;
13374;SDS011;6756;51.354;15.754;2023-04-03T22:28:38;15.87;;;8.43;;
13374;SDS011;6756;51.354;15.754;2023-04-03T22:32:50;17.20;;;8.20;;
13374;SDS011;6756;51.354;15.754;2023-04-03T22:36:53;12.17;;;7.17;;
13374;SDS011;6756;51.354;15.754;2023-04-03T22:40:58;15.30;;;8.67;;
13374;SDS011;6756;51.354;15.754;2023-04-03T22:49:23;12.50;;;7.33;;
13374;SDS011;6756;51.354;15.754;2023-04-03T22:53:24;16.73;;;9.37;;
13374;SDS011;6756;51.354;15.754;2023-04-03T22:57:28;12.30;;;7.23;;
13374;SDS011;6756;51.354;15.754;2023-04-03T23:01:30;11.93;;;6.27;;
13374;SDS011;6756;51.354;15.754;2023-04-03T23:05:38;14.33;;;6.67;;
13374;SDS011;6756;51.354;15.754;2023-04-03T23:09:40;17.30;;;9.67;;
13374;SDS011;6756;51.354;15.754;2023-04-03T23:13:41;30.43;;;15.77;;
13374;SDS011;6756;51.354;15.754;2023-04-03T23:17:43;17.13;;;8.97;;
13374;SDS011;6756;51.354;15.754;2023-04-03T23:21:44;18.83;;;8.70;;
13374;SDS011;6756;51.354;15.754;2023-04-03T23:25:49;27.40;;;11.23;;
13374;SDS011;6756;51.354;15.754;2023-04-03T23:29:51;14.17;;;5.83;;
13374;SDS011;6756;51.354;15.754;2023-04-03T23:33:52;30.63;;;14.67;;
13374;SDS011;6756;51.354;15.754;2023-04-03T23:37:53;22.77;;;11.00;;
13374;SDS011;6756;51.354;15.754;2023-04-03T23:41:55;14.20;;;7.23;;
13374;SDS011;6756;51.354;15.754;2023-04-03T23:45:56;26.17;;;10.83;;
13374;SDS011;6756;51.354;15.754;2023-04-03T23:49:58;20.90;;;10.33;;
13374;SDS011;6756;51.354;15.754;2023-04-03T23:53:59;30.17;;;13.23;;
13374;SDS011;6756;51.354;15.754;2023-04-03T23:57:59;17.03;;;7.80;;
